createdAt,value
2023-05-10T00:03:09.906Z,21.9
2023-05-10T00:13:08.799Z,21.5
2023-05-10T00:23:08.603Z,21.3
2023-05-10T00:33:08.633Z,21.4
2023-05-10T00:43:07.831Z,21.4
2023-05-10T00:53:07.551Z,21.4
2023-05-10T01:03:07.546Z,21.3
2023-05-10T01:13:07.472Z,21.5
2023-05-10T01:23:07.106Z,21.3
2023-05-10T01:33:06.871Z,21.3
2023-05-10T01:43:06.231Z,21.3
2023-05-10T01:53:06.015Z,22.6
2023-05-10T02:03:05.555Z,21.1
2023-05-10T02:13:04.993Z,21.1
2023-05-10T02:23:04.929Z,21.1
2023-05-10T02:33:04.286Z,21.2
2023-05-10T02:43:03.870Z,21
2023-05-10T02:53:03.533Z,22.3
2023-05-10T03:03:07.269Z,20.9
2023-05-10T03:13:06.751Z,20.8
2023-05-10T03:23:06.365Z,20.6
2023-05-10T03:33:06.270Z,20.9
2023-05-10T03:43:05.780Z,20.4
2023-05-10T03:53:05.075Z,20.2
2023-05-10T04:03:05.493Z,20.6
2023-05-10T04:13:06.507Z,20.4
2023-05-10T04:23:07.040Z,20.1
2023-05-10T04:33:07.013Z,21.9
2023-05-10T04:43:08.076Z,20.2
2023-05-10T04:53:08.886Z,20.6
2023-05-10T05:03:10.035Z,21.6
2023-05-10T05:13:08.960Z,20.4
2023-05-10T05:23:09.191Z,20.8
2023-05-10T05:33:10.247Z,20.8
2023-05-10T05:43:08.968Z,20.6
2023-05-10T05:53:10.840Z,20.8
2023-05-10T06:03:12.140Z,20.8
2023-05-10T06:13:11.519Z,20.7
2023-05-10T06:23:12.504Z,20.9
2023-05-10T06:33:12.385Z,20.7
2023-05-10T06:43:12.764Z,21.1
2023-05-10T06:53:12.229Z,21.1
2023-05-10T07:03:12.825Z,20.9
2023-05-10T07:13:13.110Z,20.9
2023-05-10T07:23:12.361Z,20.9
2023-05-10T07:33:11.955Z,20.9
2023-05-10T07:43:12.065Z,20.9
2023-05-10T07:53:12.432Z,22.6
2023-05-10T08:03:11.920Z,21.4
2023-05-10T08:13:13.435Z,22.9
2023-05-10T08:23:16.980Z,22.7
2023-05-10T08:33:25.905Z,26.6
2023-05-10T08:43:32.438Z,26.5
2023-05-10T08:53:37.595Z,24.1
2023-05-10T09:03:10.265Z,24.8
2023-05-10T09:13:14.841Z,24.5
2023-05-10T09:23:19.938Z,25.7
2023-05-10T09:33:30.073Z,27.6
2023-05-10T09:43:37.132Z,24.3
2023-05-10T09:53:42.000Z,27.4
2023-05-10T10:03:51.163Z,24.8
2023-05-10T10:14:00.310Z,27.1
2023-05-10T10:24:08.077Z,24.8
2023-05-10T10:34:15.980Z,24.8
2023-05-10T10:44:24.891Z,23.8
2023-05-10T10:54:31.380Z,24.1
2023-05-10T11:04:40.713Z,24.6
2023-05-10T11:14:48.741Z,21.4
2023-05-10T11:24:57.693Z,25.1
2023-05-10T11:35:08.216Z,25
2023-05-10T11:45:14.120Z,25.9
2023-05-10T11:55:18.719Z,24.3
2023-05-10T12:05:25.364Z,24
2023-05-10T12:15:31.230Z,25.1
2023-05-10T12:25:37.334Z,24.9
2023-05-10T12:35:43.202Z,23.6
2023-05-10T12:45:48.953Z,23.5
2023-05-10T12:55:51.688Z,22.9
2023-05-10T13:05:53.046Z,24.8
2023-05-10T13:15:53.078Z,21.6
2023-05-10T13:25:52.470Z,21.4
2023-05-10T13:35:53.207Z,21.7
2023-05-10T13:45:51.862Z,21.8
2023-05-10T13:55:51.962Z,21.6
2023-05-10T14:05:51.275Z,21.6
2023-05-10T14:15:51.311Z,23.5
2023-05-10T14:25:51.089Z,21.6
2023-05-10T14:35:51.343Z,21.5
2023-05-10T14:45:51.705Z,21.5
2023-05-10T14:55:51.813Z,21.4
2023-05-10T15:03:08.266Z,23.4
2023-05-10T15:13:08.119Z,21.4
2023-05-10T15:23:08.745Z,21.8
2023-05-10T15:33:08.639Z,22.9
2023-05-10T15:43:09.212Z,21.4
2023-05-10T15:53:08.598Z,21.2
2023-05-10T16:03:09.019Z,23.3
2023-05-10T16:13:11.112Z,21.3
2023-05-10T16:23:12.440Z,21.1
2023-05-10T16:33:12.103Z,22.9
2023-05-10T16:43:13.531Z,21.1
2023-05-10T16:53:15.615Z,20.9
2023-05-10T17:03:14.881Z,21.3
2023-05-10T17:13:15.882Z,21.3
2023-05-10T17:23:15.858Z,21.1
2023-05-10T17:33:15.299Z,21.1
2023-05-10T17:43:15.215Z,21.2
2023-05-10T17:53:16.055Z,21.3
2023-05-10T18:03:16.602Z,21
2023-05-10T18:13:15.593Z,21.2
2023-05-10T18:23:15.829Z,21.4
2023-05-10T18:33:15.275Z,21.2
2023-05-10T18:43:15.657Z,21.2
2023-05-10T18:53:14.794Z,21.1
2023-05-10T19:03:15.082Z,21.1
2023-05-10T19:13:15.663Z,21.1
2023-05-10T19:23:16.067Z,21.2
2023-05-10T19:33:16.678Z,22.9
2023-05-10T19:43:17.811Z,22.9
2023-05-10T19:53:17.168Z,21.3
2023-05-10T20:03:16.907Z,21.2
2023-05-10T20:13:16.485Z,21
2023-05-10T20:23:16.471Z,21.2
2023-05-10T20:33:17.145Z,21.6
2023-05-10T20:43:17.487Z,21.4
2023-05-10T20:53:16.859Z,20.9
2023-05-10T21:03:07.246Z,21.6
2023-05-10T21:13:08.420Z,21.4
2023-05-10T21:23:08.295Z,20.9
2023-05-10T21:33:09.126Z,20.9
2023-05-10T21:43:10.772Z,20.9
2023-05-10T21:53:11.943Z,22.9
2023-05-10T22:03:12.835Z,21
2023-05-10T22:13:13.208Z,20.9
2023-05-10T22:23:14.267Z,20.9
2023-05-10T22:33:16.382Z,22.6
2023-05-10T22:43:18.565Z,20.8
2023-05-10T22:53:20.109Z,20.8
2023-05-10T23:03:20.660Z,20.9
2023-05-10T23:13:20.399Z,21
2023-05-10T23:23:20.733Z,20.9
2023-05-10T23:33:20.456Z,21
2023-05-10T23:43:20.668Z,20.7
2023-05-10T23:53:22.126Z,20.8
